createdAt,value
2018-03-21T00:00:28.762Z,21.80
2018-03-21T00:02:58.382Z,21.60
2018-03-21T00:05:30.531Z,21.60
2018-03-21T00:08:00.269Z,21.50
2018-03-21T00:10:30.042Z,21.60
2018-03-21T00:13:00.120Z,21.50
2018-03-21T00:15:31.335Z,21.50
2018-03-21T00:20:38.600Z,21.40
2018-03-21T00:23:08.274Z,21.30
2018-03-21T00:25:41.205Z,21.30
2018-03-21T00:31:31.920Z,21.20
2018-03-21T00:34:02.475Z,21.30
2018-03-21T00:36:33.524Z,21.20
2018-03-21T00:39:04.551Z,21.10
2018-03-21T00:41:35.262Z,21.00
2018-03-21T00:44:08.638Z,20.90
2018-03-21T00:46:38.854Z,20.80
2018-03-21T00:49:09.152Z,20.80
2018-03-21T00:51:44.247Z,20.80
2018-03-21T00:54:13.935Z,20.60
2018-03-21T00:56:44.837Z,20.60
2018-03-21T00:59:14.548Z,20.50
2018-03-21T01:01:44.857Z,20.60
2018-03-21T01:04:15.383Z,20.50
2018-03-21T01:06:46.933Z,20.40
2018-03-21T01:12:43.239Z,20.30
2018-03-21T01:15:12.721Z,20.20
2018-03-21T01:17:42.135Z,20.10
2018-03-21T01:20:11.548Z,20.00
2018-03-21T01:22:43.449Z,20.00
2018-03-21T01:25:16.669Z,20.10
2018-03-21T01:27:50.712Z,20.10
2018-03-21T01:30:22.641Z,19.90
2018-03-21T01:32:52.142Z,20.00
2018-03-21T01:35:23.257Z,20.20
2018-03-21T01:37:54.031Z,20.10
2018-03-21T01:40:27.426Z,20.00
2018-03-21T01:42:58.728Z,19.90
2018-03-21T01:45:28.913Z,20.20
2018-03-21T01:51:25.946Z,19.90
2018-03-21T01:53:57.118Z,19.90
2018-03-21T01:56:30.415Z,19.90
2018-03-21T01:59:00.203Z,19.90
2018-03-21T02:01:29.893Z,20.00
2018-03-21T02:04:00.244Z,20.00
2018-03-21T02:06:34.428Z,19.90
2018-03-21T02:09:07.168Z,19.90
2018-03-21T02:11:41.293Z,19.90
2018-03-21T02:14:12.221Z,19.70
2018-03-21T02:16:42.583Z,19.70
2018-03-21T02:19:11.901Z,19.70
2018-03-21T02:21:41.494Z,19.60
2018-03-21T02:24:13.292Z,19.50
2018-03-21T02:26:42.688Z,19.40
2018-03-21T02:32:34.569Z,19.40
2018-03-21T02:35:12.219Z,19.30
2018-03-21T02:37:42.693Z,19.30
2018-03-21T02:40:12.207Z,19.40
2018-03-21T02:42:44.406Z,19.60
2018-03-21T02:45:15.442Z,20.10
2018-03-21T02:47:46.214Z,20.00
2018-03-21T02:50:17.805Z,20.30
2018-03-21T02:55:28.079Z,20.60
2018-03-21T02:58:00.846Z,20.60
2018-03-21T03:00:38.314Z,20.50
2018-03-21T03:03:09.135Z,20.50
2018-03-21T03:05:43.501Z,20.40
2018-03-21T03:08:14.074Z,20.40
2018-03-21T03:10:43.592Z,20.40
2018-03-21T03:13:14.157Z,20.40
2018-03-21T03:15:43.748Z,20.30
2018-03-21T03:18:13.225Z,20.30
2018-03-21T03:20:43.685Z,20.20
2018-03-21T03:23:13.193Z,20.20
2018-03-21T03:25:43.651Z,20.10
2018-03-21T03:28:13.454Z,20.10
2018-03-21T03:30:43.414Z,20.10
2018-03-21T03:33:13.044Z,20.00
2018-03-21T03:35:42.579Z,20.00
2018-03-21T03:38:12.481Z,20.00
2018-03-21T03:40:42.017Z,20.10
2018-03-21T03:43:13.369Z,20.10
2018-03-21T03:45:43.090Z,20.10
2018-03-21T03:48:15.114Z,20.10
2018-03-21T03:50:45.382Z,20.00
2018-03-21T03:53:15.235Z,20.00
2018-03-21T03:55:44.718Z,20.00
2018-03-21T03:58:14.566Z,20.00
2018-03-21T04:00:44.066Z,20.00
2018-03-21T04:03:13.640Z,19.90
2018-03-21T04:05:43.106Z,19.90
2018-03-21T04:08:12.785Z,19.80
2018-03-21T04:10:43.727Z,19.70
2018-03-21T04:13:13.260Z,19.70
2018-03-21T04:15:43.011Z,19.70
2018-03-21T04:18:12.461Z,19.60
2018-03-21T04:20:42.289Z,19.60
2018-03-21T04:23:13.330Z,19.50
2018-03-21T04:25:44.786Z,19.40
2018-03-21T04:28:16.195Z,19.40
2018-03-21T04:30:47.508Z,19.30
2018-03-21T04:36:16.425Z,19.20
2018-03-21T04:38:46.368Z,19.20
2018-03-21T04:41:16.014Z,19.20
2018-03-21T04:43:45.485Z,19.20
2018-03-21T04:46:15.159Z,19.20
2018-03-21T04:48:45.078Z,19.20
2018-03-21T04:51:18.226Z,19.20
2018-03-21T04:53:48.053Z,19.20
2018-03-21T04:56:18.726Z,19.20
2018-03-21T04:58:49.275Z,19.20
2018-03-21T05:01:18.735Z,19.10
2018-03-21T05:03:52.755Z,19.10
2018-03-21T05:09:46.188Z,19.00
2018-03-21T05:12:16.098Z,19.00
2018-03-21T05:14:46.252Z,18.90
2018-03-21T05:17:16.698Z,18.90
2018-03-21T05:19:46.353Z,18.90
2018-03-21T05:22:17.193Z,18.90
2018-03-21T05:24:47.224Z,18.90
2018-03-21T05:27:19.040Z,18.90
2018-03-21T05:29:51.833Z,18.90
2018-03-21T05:32:21.981Z,18.90
2018-03-21T05:34:51.392Z,18.80
2018-03-21T05:37:20.855Z,18.70
2018-03-21T05:39:50.338Z,18.60
2018-03-21T05:42:20.028Z,18.50
2018-03-21T05:44:49.566Z,18.50
2018-03-21T05:47:19.173Z,18.50
2018-03-21T05:49:48.745Z,18.50
2018-03-21T05:52:18.596Z,18.50
2018-03-21T05:54:48.205Z,18.50
2018-03-21T05:57:18.373Z,18.40
2018-03-21T05:59:48.001Z,18.40
2018-03-21T06:02:18.351Z,18.40
2018-03-21T06:04:47.860Z,18.40
2018-03-21T06:07:17.340Z,18.40
2018-03-21T06:09:46.816Z,18.40
2018-03-21T06:12:16.258Z,18.40
2018-03-21T06:14:45.686Z,18.20
2018-03-21T06:17:15.881Z,18.10
2018-03-21T06:19:45.322Z,18.00
2018-03-21T06:22:16.244Z,17.90
2018-03-21T06:24:45.849Z,17.90
2018-03-21T06:27:15.165Z,17.90
2018-03-21T06:29:44.781Z,17.90
2018-03-21T06:32:14.275Z,17.90
2018-03-21T06:34:43.719Z,17.90
2018-03-21T06:37:13.167Z,17.90
2018-03-21T06:39:42.622Z,17.80
2018-03-21T06:42:12.048Z,17.80
2018-03-21T06:44:41.517Z,17.70
2018-03-21T06:47:10.977Z,17.70
2018-03-21T06:49:41.652Z,17.60
2018-03-21T06:52:12.046Z,17.60
2018-03-21T06:54:41.508Z,17.60
2018-03-21T06:57:11.022Z,17.50
2018-03-21T06:59:41.785Z,17.50
2018-03-21T07:02:11.327Z,17.50
2018-03-21T07:04:40.800Z,17.50
2018-03-21T07:07:10.149Z,17.50
2018-03-21T07:09:40.533Z,17.40
2018-03-21T07:12:40.582Z,17.40
2018-03-21T07:15:21.190Z,17.30
2018-03-21T07:17:50.734Z,17.30
2018-03-21T07:20:20.085Z,17.20
2018-03-21T07:22:49.683Z,17.30
2018-03-21T07:25:19.110Z,17.20
2018-03-21T07:27:49.328Z,17.10
2018-03-21T07:30:19.510Z,17.10
2018-03-21T07:32:48.901Z,17.00
2018-03-21T07:38:39.005Z,17.00
2018-03-21T07:41:08.427Z,17.00
2018-03-21T07:43:37.735Z,17.00
2018-03-21T07:46:08.056Z,17.00
2018-03-21T07:48:38.330Z,17.00
2018-03-21T07:51:08.135Z,16.90
2018-03-21T07:53:37.601Z,17.00
2018-03-21T07:56:07.876Z,17.00
2018-03-21T07:58:37.187Z,17.00
2018-03-21T08:01:06.823Z,17.00
2018-03-21T08:03:36.209Z,17.00
2018-03-21T08:06:05.594Z,17.00
2018-03-21T08:08:35.948Z,17.00
2018-03-21T08:11:05.622Z,16.90
2018-03-21T08:13:34.967Z,17.00
2018-03-21T08:19:34.999Z,16.90
2018-03-21T08:22:04.710Z,16.90
2018-03-21T08:24:34.193Z,16.90
2018-03-21T08:30:25.324Z,17.00
2018-03-21T08:32:54.889Z,16.90
2018-03-21T08:35:24.346Z,16.90
2018-03-21T08:37:53.941Z,16.90
2018-03-21T08:40:23.419Z,16.90
2018-03-21T08:42:52.944Z,16.80
2018-03-21T08:45:22.500Z,16.80
2018-03-21T08:47:52.093Z,16.80
2018-03-21T08:50:21.611Z,16.80
2018-03-21T08:52:51.189Z,16.70
2018-03-21T08:55:20.874Z,16.70
2018-03-21T08:57:50.346Z,16.70
2018-03-21T09:00:19.926Z,16.60
2018-03-21T09:02:49.638Z,16.70
2018-03-21T09:05:19.957Z,16.60
2018-03-21T09:07:50.245Z,16.60
2018-03-21T09:10:19.812Z,16.60
2018-03-21T09:16:10.339Z,16.50
2018-03-21T09:18:40.627Z,16.40
2018-03-21T09:21:11.071Z,16.30
2018-03-21T09:23:40.803Z,16.30
2018-03-21T09:26:10.504Z,16.30
2018-03-21T09:28:40.190Z,16.20
2018-03-21T09:31:09.902Z,16.20
2018-03-21T09:33:39.689Z,16.30
2018-03-21T09:36:10.401Z,16.20
2018-03-21T09:38:39.950Z,16.20
2018-03-21T09:41:09.783Z,16.20
2018-03-21T09:43:39.595Z,16.30
2018-03-21T09:46:09.521Z,16.20
2018-03-21T09:49:21.139Z,16.10
2018-03-21T09:51:50.436Z,16.10
2018-03-21T09:54:19.989Z,16.10
2018-03-21T09:56:49.460Z,16.20
2018-03-21T10:02:40.155Z,16.10
2018-03-21T10:05:09.602Z,16.10
2018-03-21T10:07:39.251Z,16.10
2018-03-21T10:10:09.177Z,16.10
2018-03-21T10:12:38.635Z,16.10
2018-03-21T10:15:08.260Z,16.10
2018-03-21T10:17:38.519Z,16.10
2018-03-21T10:20:08.056Z,16.10
2018-03-21T10:22:37.510Z,16.10
2018-03-21T10:25:07.118Z,16.10
2018-03-21T10:27:38.464Z,16.10
2018-03-21T10:30:08.351Z,16.10
2018-03-21T10:32:37.800Z,16.10
2018-03-21T10:35:07.369Z,16.20
2018-03-21T10:37:37.056Z,16.10
2018-03-21T10:40:06.615Z,16.10
2018-03-21T10:42:36.057Z,16.10
2018-03-21T10:45:05.706Z,16.10
2018-03-21T10:47:35.296Z,16.10
2018-03-21T10:50:05.208Z,16.20
2018-03-21T10:52:38.914Z,16.10
2018-03-21T10:55:04.489Z,16.10
2018-03-21T10:58:04.346Z,16.10
2018-03-21T11:00:33.675Z,16.10
2018-03-21T11:03:07.821Z,16.10
2018-03-21T11:05:38.238Z,16.10
2018-03-21T11:08:07.737Z,16.10
2018-03-21T11:10:37.199Z,16.10
2018-03-21T11:13:06.604Z,16.10
2018-03-21T11:15:36.064Z,16.10
2018-03-21T11:18:05.620Z,16.10
2018-03-21T11:20:34.948Z,16.20
2018-03-21T11:23:04.404Z,16.20
2018-03-21T11:28:54.949Z,16.10
2018-03-21T11:31:24.238Z,16.10
2018-03-21T11:33:53.669Z,16.10
2018-03-21T11:36:23.522Z,16.10
2018-03-21T11:38:53.729Z,16.10
2018-03-21T11:41:25.912Z,16.10
2018-03-21T11:43:55.306Z,16.10
2018-03-21T11:46:24.901Z,16.10
2018-03-21T11:48:55.110Z,16.10
2018-03-21T11:51:24.664Z,16.10
2018-03-21T11:54:45.368Z,16.10
2018-03-21T11:57:14.880Z,16.10
2018-03-21T11:59:44.211Z,16.20
2018-03-21T12:02:13.813Z,16.20
2018-03-21T12:04:43.497Z,16.20
2018-03-21T12:07:13.158Z,16.20
2018-03-21T12:09:42.806Z,16.10
2018-03-21T12:12:13.214Z,16.20
2018-03-21T12:14:42.647Z,16.20
2018-03-21T12:17:12.025Z,16.20
2018-03-21T12:19:42.198Z,16.30
2018-03-21T12:22:11.575Z,16.30
2018-03-21T12:24:40.882Z,16.30
2018-03-21T12:27:12.401Z,16.40
2018-03-21T12:29:41.951Z,16.60
2018-03-21T12:32:11.320Z,16.90
2018-03-21T12:34:40.936Z,17.10
2018-03-21T12:37:15.925Z,17.20
2018-03-21T12:39:45.580Z,17.40
2018-03-21T12:42:16.484Z,17.60
2018-03-21T12:44:46.122Z,17.70
2018-03-21T12:47:15.687Z,17.90
2018-03-21T12:52:29.015Z,18.20
2018-03-21T12:54:58.852Z,18.50
2018-03-21T12:57:28.175Z,18.60
2018-03-21T12:59:57.624Z,18.70
2018-03-21T13:02:27.037Z,18.90
2018-03-21T13:04:59.499Z,19.10
2018-03-21T13:07:31.834Z,19.30
2018-03-21T13:10:01.887Z,19.60
2018-03-21T13:12:31.730Z,19.60
2018-03-21T13:15:01.351Z,19.80
2018-03-21T13:17:32.950Z,20.10
2018-03-21T13:20:02.939Z,20.30
2018-03-21T13:22:37.494Z,20.60
2018-03-21T13:25:11.282Z,20.50
2018-03-21T13:31:12.888Z,20.70
2018-03-21T13:33:43.189Z,21.00
2018-03-21T13:36:12.678Z,21.20
2018-03-21T13:38:43.237Z,21.20
2018-03-21T13:41:13.497Z,21.40
2018-03-21T13:43:43.738Z,21.40
2018-03-21T13:46:15.566Z,21.40
2018-03-21T13:48:46.315Z,21.50
2018-03-21T13:51:15.965Z,21.50
2018-03-21T13:53:51.142Z,21.70
2018-03-21T13:56:21.381Z,21.90
2018-03-21T13:58:50.828Z,21.90
2018-03-21T14:01:20.229Z,22.10
2018-03-21T14:07:13.371Z,22.40
2018-03-21T14:09:43.825Z,22.40
2018-03-21T14:12:13.119Z,22.70
2018-03-21T14:18:03.442Z,22.80
2018-03-21T14:20:32.883Z,22.70
2018-03-21T14:23:02.117Z,22.70
2018-03-21T14:25:33.802Z,22.80
2018-03-21T14:28:03.327Z,23.10
2018-03-21T14:30:33.079Z,23.20
2018-03-21T14:33:02.666Z,23.10
2018-03-21T14:35:31.954Z,23.10
2018-03-21T14:38:01.229Z,23.30
2018-03-21T14:40:30.592Z,23.40
2018-03-21T14:42:59.859Z,23.50
2018-03-21T14:45:40.285Z,23.60
2018-03-21T14:48:09.655Z,23.40
2018-03-21T14:50:38.977Z,23.60
2018-03-21T14:53:09.272Z,23.60
2018-03-21T14:55:38.662Z,23.90
2018-03-21T14:58:07.983Z,23.90
2018-03-21T15:00:38.088Z,24.00
2018-03-21T15:03:09.319Z,24.00
2018-03-21T15:05:38.827Z,24.10
2018-03-21T15:08:10.386Z,24.40
2018-03-21T15:10:39.695Z,24.40
2018-03-21T15:13:08.978Z,24.60
2018-03-21T15:15:38.303Z,24.90
2018-03-21T15:18:07.618Z,24.80
2018-03-21T15:20:41.935Z,25.20
2018-03-21T15:23:12.661Z,24.50
2018-03-21T15:25:45.347Z,24.50
2018-03-21T15:28:14.629Z,24.20
2018-03-21T15:30:43.925Z,24.30
2018-03-21T15:33:13.180Z,24.50
2018-03-21T15:35:42.623Z,24.60
2018-03-21T15:38:11.870Z,25.10
2018-03-21T15:40:41.563Z,25.40
2018-03-21T15:43:12.291Z,25.20
2018-03-21T15:45:41.927Z,25.00
2018-03-21T15:48:11.263Z,25.20
2018-03-21T15:50:40.527Z,25.40
2018-03-21T15:53:10.467Z,25.30
2018-03-21T15:55:39.922Z,25.60
2018-03-21T15:58:09.768Z,25.70
2018-03-21T16:00:39.847Z,26.00
2018-03-21T16:03:10.534Z,26.00
2018-03-21T16:05:43.706Z,25.90
2018-03-21T16:08:13.874Z,25.90
2018-03-21T16:11:13.027Z,25.90
2018-03-21T16:13:42.435Z,25.60
2018-03-21T16:16:11.731Z,25.60
2018-03-21T16:18:44.777Z,25.60
2018-03-21T16:21:17.294Z,25.60
2018-03-21T16:23:55.730Z,25.90
2018-03-21T16:26:25.379Z,26.40
2018-03-21T16:29:01.840Z,25.90
2018-03-21T16:31:31.240Z,25.90
2018-03-21T16:37:33.121Z,26.00
2018-03-21T16:40:02.698Z,26.50
2018-03-21T16:42:32.412Z,26.70
2018-03-21T16:48:33.570Z,26.70
2018-03-21T16:51:03.137Z,26.00
2018-03-21T16:53:32.600Z,25.40
2018-03-21T16:56:02.354Z,25.50
2018-03-21T16:58:42.560Z,25.50
2018-03-21T17:01:12.679Z,25.90
2018-03-21T17:03:42.382Z,26.40
2018-03-21T17:06:17.141Z,26.80
2018-03-21T17:08:58.384Z,26.60
2018-03-21T17:11:28.098Z,26.40
2018-03-21T17:13:57.629Z,26.50
2018-03-21T17:16:27.077Z,27.30
2018-03-21T17:18:57.796Z,27.30
2018-03-21T17:21:27.257Z,27.20
2018-03-21T17:23:59.077Z,27.70
2018-03-21T17:26:28.778Z,27.40
2018-03-21T17:28:58.383Z,27.40
2018-03-21T17:31:28.411Z,26.60
2018-03-21T17:33:58.801Z,25.90
2018-03-21T17:36:29.126Z,25.90
2018-03-21T17:38:58.812Z,26.30
2018-03-21T17:41:28.346Z,27.30
2018-03-21T17:43:58.662Z,27.40
2018-03-21T17:46:28.284Z,27.10
2018-03-21T17:49:01.027Z,26.50
2018-03-21T17:51:30.661Z,26.20
2018-03-21T17:54:01.979Z,26.80
2018-03-21T17:56:32.832Z,26.80
2018-03-21T17:59:02.566Z,27.30
2018-03-21T18:01:32.693Z,27.40
2018-03-21T18:04:02.964Z,27.40
2018-03-21T18:06:32.675Z,27.30
2018-03-21T18:09:02.114Z,27.60
2018-03-21T18:11:31.736Z,27.10
2018-03-21T18:14:01.229Z,26.40
2018-03-21T18:16:31.490Z,26.00
2018-03-21T18:19:07.652Z,25.80
2018-03-21T18:21:38.108Z,25.40
2018-03-21T18:24:07.813Z,25.30
2018-03-21T18:26:38.241Z,25.60
2018-03-21T18:29:09.458Z,26.00
2018-03-21T18:35:10.972Z,27.30
2018-03-21T18:37:40.456Z,27.30
2018-03-21T18:40:11.620Z,27.20
2018-03-21T18:42:44.667Z,27.10
2018-03-21T18:45:14.734Z,27.00
2018-03-21T18:47:44.840Z,27.60
2018-03-21T18:50:14.328Z,28.20
2018-03-21T18:52:44.072Z,27.90
2018-03-21T18:55:13.638Z,27.70
2018-03-21T18:57:43.314Z,27.10
2018-03-21T19:00:13.037Z,26.80
2018-03-21T19:02:43.322Z,27.90
2018-03-21T19:05:13.087Z,27.80
2018-03-21T19:07:43.396Z,28.00
2018-03-21T19:10:13.681Z,27.40
2018-03-21T19:12:43.212Z,27.40
2018-03-21T19:15:13.516Z,28.00
2018-03-21T19:17:45.688Z,27.90
2018-03-21T19:20:18.360Z,28.10
2018-03-21T19:22:47.978Z,27.50
2018-03-21T19:25:18.246Z,27.40
2018-03-21T19:27:47.843Z,27.80
2018-03-21T19:30:20.857Z,28.00
2018-03-21T19:32:53.978Z,27.80
2018-03-21T19:35:23.718Z,28.20
2018-03-21T19:37:54.216Z,27.70
2018-03-21T19:40:24.114Z,27.70
2018-03-21T19:42:54.257Z,28.00
2018-03-21T19:45:24.276Z,28.00
2018-03-21T19:47:55.304Z,28.30
2018-03-21T19:50:26.187Z,27.80
2018-03-21T19:52:56.013Z,27.90
2018-03-21T19:55:25.834Z,28.30
2018-03-21T19:57:56.129Z,28.80
2018-03-21T20:00:25.608Z,28.80
2018-03-21T20:05:56.730Z,28.90
2018-03-21T20:08:27.983Z,28.60
2018-03-21T20:10:57.783Z,28.50
2018-03-21T20:13:27.582Z,28.80
2018-03-21T20:15:59.431Z,28.50
2018-03-21T20:19:08.290Z,28.30
2018-03-21T20:21:38.903Z,28.60
2018-03-21T20:24:10.084Z,28.60
2018-03-21T20:26:39.701Z,28.80
2018-03-21T20:29:09.549Z,28.70
2018-03-21T20:35:15.303Z,29.20
2018-03-21T20:37:45.965Z,28.60
2018-03-21T20:40:17.288Z,28.50
2018-03-21T20:42:50.063Z,27.40
2018-03-21T20:45:19.832Z,27.40
2018-03-21T20:47:49.608Z,27.50
2018-03-21T20:50:53.886Z,27.70
2018-03-21T20:53:23.527Z,27.80
2018-03-21T20:55:54.629Z,27.90
2018-03-21T21:03:42.638Z,28.00
2018-03-21T21:13:12.413Z,28.40
2018-03-21T21:15:42.744Z,28.40
2018-03-21T21:18:16.787Z,28.30
2018-03-21T21:20:48.714Z,28.40
2018-03-21T21:23:19.277Z,28.30
2018-03-21T21:25:50.908Z,28.20
2018-03-21T21:28:20.546Z,28.50
2018-03-21T21:30:51.576Z,28.60
2018-03-21T21:33:21.090Z,28.60
2018-03-21T21:35:52.439Z,28.60
2018-03-21T21:38:42.518Z,28.20
2018-03-21T21:41:12.468Z,28.20
2018-03-21T21:43:42.600Z,28.20
2018-03-21T21:46:12.503Z,28.20
2018-03-21T21:48:42.089Z,28.20
2018-03-21T21:51:12.547Z,28.30
2018-03-21T21:53:43.427Z,28.30
2018-03-21T21:56:13.915Z,28.30
2018-03-21T21:58:44.370Z,27.90
2018-03-21T22:01:14.171Z,27.70
2018-03-21T22:03:44.640Z,27.60
2018-03-21T22:06:14.492Z,27.60
2018-03-21T22:08:44.057Z,27.80
2018-03-21T22:11:13.662Z,27.60
2018-03-21T22:13:43.887Z,27.50
2018-03-21T22:16:14.677Z,27.30
2018-03-21T22:18:44.406Z,27.20
2018-03-21T22:21:15.567Z,26.90
2018-03-21T22:23:46.270Z,27.00
2018-03-21T22:26:17.596Z,27.00
2018-03-21T22:28:47.328Z,27.00
2018-03-21T22:31:17.420Z,27.20
2018-03-21T22:33:47.402Z,27.30
2018-03-21T22:36:17.713Z,27.00
2018-03-21T22:38:49.185Z,27.20
2018-03-21T22:41:18.792Z,27.10
2018-03-21T22:43:49.557Z,27.00
2018-03-21T22:46:20.672Z,26.70
2018-03-21T22:48:53.888Z,26.60
2018-03-21T22:51:25.371Z,26.30
2018-03-21T22:53:55.575Z,26.20
2018-03-21T22:56:25.196Z,26.00
2018-03-21T22:58:56.752Z,25.70
2018-03-21T23:01:28.746Z,25.70
2018-03-21T23:06:31.738Z,25.60
2018-03-21T23:09:01.302Z,25.50
2018-03-21T23:11:32.598Z,25.30
2018-03-21T23:14:02.282Z,25.30
2018-03-21T23:16:31.945Z,25.10
2018-03-21T23:22:22.747Z,24.90
2018-03-21T23:24:55.450Z,24.90
2018-03-21T23:27:24.977Z,24.90
2018-03-21T23:29:54.433Z,24.90
2018-03-21T23:32:24.721Z,24.60
2018-03-21T23:34:56.874Z,24.40
2018-03-21T23:37:26.359Z,24.20
2018-03-21T23:39:58.525Z,23.90
2018-03-21T23:42:32.505Z,23.70
2018-03-21T23:45:02.109Z,23.50
2018-03-21T23:47:37.587Z,23.40
2018-03-21T23:50:07.944Z,23.20
2018-03-21T23:52:38.937Z,23.10
2018-03-21T23:55:13.706Z,23.10
2018-03-21T23:57:43.191Z,22.90
